createdAt,value
2022-11-16T00:00:16.163Z,95252.66
2022-11-16T00:02:43.480Z,95095.34
2022-11-16T00:05:42.820Z,95216.81
2022-11-16T00:08:17.272Z,95430.81
2022-11-16T00:10:55.570Z,95185.66
2022-11-16T00:13:29.896Z,95510.75
2022-11-16T00:18:45.121Z,95007.91
2022-11-16T00:21:17.062Z,94975.72
2022-11-16T00:24:04.952Z,95352.09
2022-11-16T00:26:45.054Z,94962.50
2022-11-16T00:29:44.281Z,95463.53
2022-11-16T00:32:11.784Z,94960.69
2022-11-16T00:34:41.992Z,95126.22
2022-11-16T00:37:22.491Z,95019.50
2022-11-16T00:39:55.396Z,94971.69
2022-11-16T00:45:25.501Z,95205.47
2022-11-16T00:48:00.564Z,95395.38
2022-11-16T00:50:36.618Z,95338.06
2022-11-16T00:53:21.656Z,95390.47
2022-11-16T00:55:55.363Z,95198.19
2022-11-16T00:58:42.734Z,95195.34
2022-11-16T01:01:14.174Z,95200.84
2022-11-16T01:03:51.576Z,95220.66
2022-11-16T01:06:27.676Z,95517.66
2022-11-16T01:08:59.021Z,95522.50
2022-11-16T01:11:41.702Z,94975.78
2022-11-16T01:14:18.361Z,95089.84
2022-11-16T01:16:56.237Z,95106.00
2022-11-16T01:19:33.500Z,94920.88
2022-11-16T01:22:10.392Z,95070.50
2022-11-16T01:24:45.442Z,95292.03
2022-11-16T01:27:16.252Z,95482.84
2022-11-16T01:29:43.950Z,95371.78
2022-11-16T01:32:18.959Z,94982.44
2022-11-16T01:34:54.517Z,95159.91
2022-11-16T01:37:34.256Z,95210.63
2022-11-16T01:40:07.162Z,95420.78
2022-11-16T01:42:57.542Z,95013.72
2022-11-16T01:45:41.487Z,95114.16
2022-11-16T01:48:23.685Z,95070.47
2022-11-16T01:50:56.836Z,95121.47
2022-11-16T01:53:43.289Z,94959.06
2022-11-16T01:56:19.382Z,95149.31
2022-11-16T01:59:01.000Z,95289.78
2022-11-16T02:01:32.330Z,95026.78
2022-11-16T02:03:59.481Z,95173.47
2022-11-16T02:06:26.903Z,95396.31
2022-11-16T02:09:29.429Z,95395.44
2022-11-16T02:12:03.494Z,95286.78
2022-11-16T02:14:59.535Z,95038.38
2022-11-16T02:17:34.916Z,95390.13
2022-11-16T02:20:23.178Z,95382.84
2022-11-16T02:23:10.877Z,95385.38
2022-11-16T02:26:01.081Z,95387.03
2022-11-16T02:28:47.166Z,95383.38
2022-11-16T02:31:26.723Z,95098.31
2022-11-16T02:34:04.684Z,95072.19
2022-11-16T02:36:38.880Z,95239.00
2022-11-16T02:39:19.077Z,95219.00
2022-11-16T02:41:49.623Z,95027.56
2022-11-16T02:44:27.899Z,95070.81
2022-11-16T02:47:00.297Z,94977.06
2022-11-16T02:49:35.738Z,95096.47
2022-11-16T02:52:19.323Z,95497.31
2022-11-16T02:54:54.467Z,95132.38
2022-11-16T02:57:43.002Z,95157.66
2022-11-16T03:00:18.902Z,95263.81
2022-11-16T03:02:54.778Z,95373.72
2022-11-16T03:05:46.651Z,94826.06
2022-11-16T03:08:23.155Z,95364.84
2022-11-16T03:10:58.939Z,95061.59
2022-11-16T03:13:33.829Z,94880.75
2022-11-16T03:16:08.202Z,95428.75
2022-11-16T03:18:41.470Z,95355.16
2022-11-16T03:21:27.556Z,95171.59
2022-11-16T03:23:55.163Z,94898.00
2022-11-16T03:26:25.637Z,95045.09
2022-11-16T03:29:12.213Z,94875.16
2022-11-16T03:31:49.138Z,94834.81
2022-11-16T03:34:28.316Z,95451.44
2022-11-16T03:36:58.043Z,95345.31
2022-11-16T03:39:36.363Z,95240.59
2022-11-16T03:42:12.642Z,94991.22
2022-11-16T03:44:50.588Z,95389.03
2022-11-16T03:47:27.519Z,95014.63
2022-11-16T03:50:03.540Z,95066.53
2022-11-16T03:52:41.508Z,95083.66
2022-11-16T03:55:15.037Z,94847.22
2022-11-16T03:57:47.115Z,95027.34
2022-11-16T04:00:20.895Z,95335.59
2022-11-16T04:02:52.070Z,94976.25
2022-11-16T04:05:20.076Z,95008.06
2022-11-16T04:07:49.232Z,95019.09
2022-11-16T04:10:23.918Z,95083.91
2022-11-16T04:12:54.373Z,94912.56
2022-11-16T04:15:24.174Z,94827.06
2022-11-16T04:17:53.671Z,94815.03
2022-11-16T04:20:31.137Z,95142.66
2022-11-16T04:23:17.462Z,94961.09
2022-11-16T04:25:52.806Z,95111.16
2022-11-16T04:31:19.962Z,95041.41
2022-11-16T04:33:51.045Z,95259.47
2022-11-16T04:36:32.654Z,95035.69
2022-11-16T04:39:03.119Z,95259.59
2022-11-16T04:41:33.796Z,94833.63
2022-11-16T04:44:01.105Z,94833.69
2022-11-16T04:46:31.050Z,95200.34
2022-11-16T04:49:03.037Z,95340.00
2022-11-16T04:51:52.133Z,94846.94
2022-11-16T04:54:24.138Z,95331.13
2022-11-16T04:56:54.570Z,94834.19
2022-11-16T04:59:23.858Z,95065.97
2022-11-16T05:01:57.323Z,94988.81
2022-11-16T05:04:47.607Z,95134.44
2022-11-16T05:07:31.548Z,95014.47
2022-11-16T05:10:14.609Z,95303.16
2022-11-16T05:12:47.283Z,94984.63
2022-11-16T05:15:15.048Z,94883.50
2022-11-16T05:18:04.116Z,95238.72
2022-11-16T05:20:42.337Z,95291.88
2022-11-16T05:23:12.486Z,94833.53
2022-11-16T05:25:48.806Z,94974.72
2022-11-16T05:28:25.407Z,95029.34
2022-11-16T05:30:54.814Z,94794.59
2022-11-16T05:33:28.456Z,94806.63
2022-11-16T05:36:03.303Z,95001.28
2022-11-16T05:38:36.688Z,94901.56
2022-11-16T05:43:55.816Z,95314.63
2022-11-16T05:46:38.237Z,95091.75
2022-11-16T05:49:08.963Z,95296.69
2022-11-16T05:52:34.977Z,95321.31
2022-11-16T05:57:43.771Z,94897.66
2022-11-16T06:00:17.541Z,95049.66
2022-11-16T06:02:49.365Z,95051.56
2022-11-16T06:05:40.699Z,95000.00
2022-11-16T06:08:42.407Z,95334.50
2022-11-16T06:11:11.367Z,94863.41
2022-11-16T06:14:22.494Z,94862.09
2022-11-16T06:20:43.681Z,95139.59
2022-11-16T06:23:34.557Z,95297.63
2022-11-16T06:29:40.999Z,95038.66
2022-11-16T06:32:15.424Z,95000.84
2022-11-16T06:34:46.278Z,95175.50
2022-11-16T06:43:05.942Z,94857.94
2022-11-16T06:46:24.479Z,95056.41
2022-11-16T06:49:00.221Z,95179.50
2022-11-16T06:51:38.592Z,94852.22
2022-11-16T06:54:44.969Z,94957.78
2022-11-16T06:57:18.995Z,94814.84
2022-11-16T06:59:50.368Z,95175.41
2022-11-16T07:34:13.000Z,94805.25
2022-11-16T07:36:21.410Z,94835.66
2022-11-16T07:38:51.979Z,95000.06
2022-11-16T07:41:20.663Z,94915.41
2022-11-16T08:05:10.729Z,94857.06
2022-11-16T08:08:05.967Z,94796.13
2022-11-16T08:14:11.484Z,95255.13
2022-11-16T08:16:44.034Z,94863.63
2022-11-16T08:23:01.131Z,94774.03
2022-11-16T08:25:37.329Z,95229.47
2022-11-16T08:28:09.287Z,95133.72
2022-11-16T08:30:43.439Z,95222.09
2022-11-16T08:33:18.288Z,94800.41
2022-11-16T08:38:46.327Z,94704.63
2022-11-16T08:44:12.361Z,94940.44
2022-11-16T08:46:48.861Z,94922.72
2022-11-16T08:52:47.326Z,95211.47
2022-11-16T08:55:26.420Z,94901.16
2022-11-16T08:58:35.878Z,95204.28
2022-11-16T09:01:18.061Z,94757.75
2022-11-16T09:03:46.842Z,94753.56
2022-11-16T09:09:40.613Z,94990.75
2022-11-16T09:29:16.214Z,95169.16
2022-11-16T09:32:09.433Z,94693.81
2022-11-16T09:34:55.925Z,94734.91
2022-11-16T09:51:11.240Z,94973.00
2022-11-16T09:54:15.972Z,95121.03
2022-11-16T09:57:18.879Z,95085.47
2022-11-16T10:00:13.607Z,94726.13
2022-11-16T10:03:15.136Z,94851.81
2022-11-16T10:06:00.659Z,95123.88
2022-11-16T10:08:52.491Z,94708.00
2022-11-16T10:12:04.890Z,95077.31
2022-11-16T10:25:26.370Z,94871.13
2022-11-16T10:28:05.917Z,95035.56
2022-11-16T10:30:44.979Z,94817.56
2022-11-16T10:33:18.955Z,94962.97
2022-11-16T10:35:50.090Z,94903.88
2022-11-16T10:38:20.475Z,94979.22
2022-11-16T10:40:52.732Z,94943.72
2022-11-16T10:43:31.406Z,95021.66
2022-11-16T10:46:24.569Z,95009.84
2022-11-16T10:49:07.359Z,95034.53
2022-11-16T10:51:34.246Z,95015.50
2022-11-16T10:54:01.380Z,94924.19
2022-11-16T10:56:42.730Z,94809.44
2022-11-16T10:59:11.559Z,94994.72
2022-11-16T11:01:41.084Z,94923.63
2022-11-16T11:04:30.013Z,94983.19
2022-11-16T11:07:29.399Z,94981.22
2022-11-16T11:09:57.141Z,94686.47
2022-11-16T11:12:26.245Z,94741.91
2022-11-16T11:15:26.281Z,94973.91
2022-11-16T11:18:17.482Z,94965.50
2022-11-16T11:20:48.751Z,94796.19
2022-11-16T11:23:26.453Z,94934.25
2022-11-16T11:26:01.221Z,94696.66
2022-11-16T11:28:30.098Z,94939.47
2022-11-16T11:31:04.199Z,94984.84
2022-11-16T11:33:41.595Z,94467.50
2022-11-16T11:36:16.011Z,94931.53
2022-11-16T11:42:21.324Z,94879.53
2022-11-16T11:45:00.285Z,94441.66
2022-11-16T11:47:57.320Z,94911.66
2022-11-16T11:50:47.960Z,94674.19
2022-11-16T11:53:47.731Z,94898.13
2022-11-16T11:56:15.284Z,94601.69
2022-11-16T11:58:43.609Z,94802.81
2022-11-16T12:01:29.050Z,94892.69
2022-11-16T12:04:33.233Z,94784.44
2022-11-16T12:07:22.337Z,94894.31
2022-11-16T12:10:01.486Z,94884.88
2022-11-16T12:12:44.214Z,94714.97
2022-11-16T12:15:34.084Z,94876.47
2022-11-16T12:18:39.213Z,94878.50
2022-11-16T12:21:20.932Z,94760.31
2022-11-16T12:24:03.240Z,94719.31
2022-11-16T12:26:54.168Z,94896.88
2022-11-16T12:29:24.635Z,94871.63
2022-11-16T12:32:11.092Z,94752.41
2022-11-16T12:34:37.993Z,94863.97
2022-11-16T12:37:16.513Z,94861.97
2022-11-16T12:39:49.432Z,94863.50
2022-11-16T12:42:21.857Z,94864.50
2022-11-16T12:45:13.898Z,94852.75
2022-11-16T12:47:59.000Z,94855.06
2022-11-16T12:50:45.515Z,94766.94
2022-11-16T12:53:41.167Z,94528.69
2022-11-16T12:56:17.001Z,94840.50
2022-11-16T12:59:15.536Z,94745.25
2022-11-16T13:02:06.123Z,94840.22
2022-11-16T13:04:42.528Z,94856.78
2022-11-16T13:07:19.471Z,94812.97
2022-11-16T13:09:51.430Z,94716.75
2022-11-16T13:12:22.216Z,94826.44
2022-11-16T13:14:53.617Z,94827.19
2022-11-16T13:17:39.873Z,94787.75
2022-11-16T13:20:15.095Z,94822.88
2022-11-16T13:22:51.401Z,94807.09
2022-11-16T13:25:23.737Z,94817.50
2022-11-16T13:27:55.734Z,94677.81
2022-11-16T13:30:27.873Z,94811.16
2022-11-16T13:33:25.410Z,94811.69
2022-11-16T13:35:52.552Z,94606.56
2022-11-16T13:38:52.322Z,94771.47
2022-11-16T13:41:36.236Z,94811.47
2022-11-16T13:44:11.155Z,94703.78
2022-11-16T13:47:00.214Z,94631.72
2022-11-16T13:49:29.722Z,94712.19
2022-11-16T13:52:26.633Z,94797.94
2022-11-16T13:54:55.699Z,94780.41
2022-11-16T13:57:27.085Z,94822.19
2022-11-16T14:00:09.606Z,94772.28
2022-11-16T14:02:39.840Z,94807.16
2022-11-16T14:05:12.700Z,94803.59
2022-11-16T14:07:40.797Z,94800.53
2022-11-16T14:10:07.812Z,94810.72
2022-11-16T14:12:37.672Z,94804.09
2022-11-16T14:15:22.371Z,94795.94
2022-11-16T14:18:07.796Z,94802.31
2022-11-16T14:20:57.807Z,94802.06
2022-11-16T14:23:49.358Z,94662.31
2022-11-16T14:26:37.417Z,94799.25
2022-11-16T14:29:04.237Z,94794.41
2022-11-16T14:31:55.323Z,94782.47
2022-11-16T14:34:32.600Z,94745.53
2022-11-16T14:37:00.520Z,94595.06
2022-11-16T14:39:32.118Z,94788.06
2022-11-16T14:42:03.752Z,94653.38
2022-11-16T14:44:35.720Z,94802.09
2022-11-16T14:47:03.283Z,94788.56
2022-11-16T14:49:34.748Z,94658.97
2022-11-16T14:52:04.023Z,94801.31
2022-11-16T14:54:47.958Z,94792.13
2022-11-16T14:57:20.513Z,94656.66
2022-11-16T14:59:47.719Z,94765.66
2022-11-16T15:02:25.714Z,94795.69
2022-11-16T15:04:54.614Z,94656.09
2022-11-16T15:07:26.741Z,94716.00
2022-11-16T15:09:57.327Z,94632.44
2022-11-16T15:12:28.157Z,94714.22
2022-11-16T15:14:58.049Z,94695.09
2022-11-16T15:17:31.845Z,94773.56
2022-11-16T15:20:02.246Z,94770.22
2022-11-16T15:22:39.278Z,94632.69
2022-11-16T15:25:31.399Z,94773.53
2022-11-16T15:28:01.576Z,94778.13
2022-11-16T15:30:36.643Z,94637.22
2022-11-16T15:33:10.085Z,94793.38
2022-11-16T15:35:38.247Z,94754.91
2022-11-16T15:38:25.810Z,94767.88
2022-11-16T15:40:55.257Z,94790.25
2022-11-16T15:43:25.800Z,94744.63
2022-11-16T15:45:53.406Z,94781.03
2022-11-16T15:48:27.641Z,94774.88
2022-11-16T15:51:05.165Z,94617.31
2022-11-16T15:53:39.271Z,94776.38
2022-11-16T15:56:16.155Z,94550.28
2022-11-16T15:58:43.396Z,94807.06
2022-11-16T16:01:12.123Z,94475.69
2022-11-16T16:03:39.353Z,94747.47
2022-11-16T16:06:07.045Z,94788.50
2022-11-16T16:08:38.656Z,94778.06
2022-11-16T16:11:27.048Z,94783.09
2022-11-16T16:13:59.854Z,94749.47
2022-11-16T16:16:30.446Z,94789.41
2022-11-16T16:19:08.159Z,94773.69
2022-11-16T16:21:46.944Z,94725.38
2022-11-16T16:24:36.161Z,94777.25
2022-11-16T16:27:03.096Z,94673.84
2022-11-16T16:29:29.870Z,94687.09
2022-11-16T16:31:56.724Z,94694.75
2022-11-16T16:34:23.474Z,94785.50
2022-11-16T16:36:50.290Z,94682.44
2022-11-16T16:39:17.171Z,94772.69
2022-11-16T16:41:44.320Z,94652.84
2022-11-16T16:44:17.926Z,94636.44
2022-11-16T16:46:45.216Z,94523.81
2022-11-16T16:49:12.046Z,94567.69
2022-11-16T16:51:38.888Z,94619.75
2022-11-16T16:54:06.036Z,94776.84
2022-11-16T16:56:33.125Z,94674.00
2022-11-16T16:59:00.330Z,94715.72
2022-11-16T17:01:27.545Z,94595.53
2022-11-16T17:03:54.380Z,94798.50
2022-11-16T17:06:21.379Z,94448.81
2022-11-16T17:08:48.438Z,94655.25
2022-11-16T17:11:15.326Z,94774.75
2022-11-16T17:13:42.168Z,94637.41
2022-11-16T17:16:09.810Z,94634.03
2022-11-16T17:18:36.687Z,94659.03
2022-11-16T17:21:08.527Z,94622.25
2022-11-16T17:23:37.038Z,94601.59
2022-11-16T17:26:05.848Z,94761.34
2022-11-16T17:28:33.843Z,94570.03
2022-11-16T17:31:05.423Z,94751.03
2022-11-16T17:33:36.806Z,94666.09
2022-11-16T17:36:05.806Z,94674.94
2022-11-16T17:38:35.954Z,94642.59
2022-11-16T17:41:14.170Z,94549.38
2022-11-16T17:43:43.122Z,94769.50
2022-11-16T17:46:12.597Z,94393.88
2022-11-16T17:48:41.497Z,94569.66
2022-11-16T17:51:09.434Z,94721.22
2022-11-16T17:53:38.156Z,94727.59
2022-11-16T17:59:02.201Z,94554.16
2022-11-16T18:01:30.466Z,94279.47
2022-11-16T18:03:58.646Z,94534.16
2022-11-16T18:06:40.321Z,94780.59
2022-11-16T18:09:08.094Z,94341.59
2022-11-16T18:11:37.254Z,94729.97
2022-11-16T18:14:05.574Z,94434.72
2022-11-16T18:16:34.473Z,94644.72
2022-11-16T18:19:06.898Z,94611.50
2022-11-16T18:21:42.082Z,94642.38
2022-11-16T18:24:10.831Z,94447.47
2022-11-16T18:26:39.445Z,94733.78
2022-11-16T18:29:08.790Z,94686.19
2022-11-16T18:31:37.793Z,94494.59
2022-11-16T18:34:06.178Z,94454.06
2022-11-16T18:36:34.125Z,94179.41
2022-11-16T18:39:01.756Z,94553.13
2022-11-16T18:41:30.246Z,94717.66
2022-11-16T18:44:00.742Z,94382.19
2022-11-16T18:46:33.332Z,94634.22
2022-11-16T18:49:01.484Z,94728.88
2022-11-16T18:51:31.081Z,94736.19
2022-11-16T18:54:00.889Z,94579.06
2022-11-16T18:56:28.398Z,94293.50
2022-11-16T18:58:55.982Z,94720.16
2022-11-16T19:01:25.402Z,94753.91
2022-11-16T19:03:53.936Z,94568.16
2022-11-16T19:06:22.100Z,94745.03
2022-11-16T19:08:55.980Z,94577.78
2022-11-16T19:11:24.492Z,94710.50
2022-11-16T19:13:57.442Z,94579.16
2022-11-16T19:16:25.852Z,94560.50
2022-11-16T19:18:53.935Z,94679.88
2022-11-16T19:21:23.641Z,94717.91
2022-11-16T19:23:56.004Z,94720.91
2022-11-16T19:26:28.041Z,94723.44
2022-11-16T19:28:57.598Z,94688.34
2022-11-16T19:31:28.211Z,94722.34
2022-11-16T19:33:58.356Z,94728.41
2022-11-16T19:36:29.053Z,94706.56
2022-11-16T19:38:58.527Z,94645.34
2022-11-16T19:41:28.281Z,94649.28
2022-11-16T19:44:01.417Z,94699.09
2022-11-16T19:46:34.875Z,94705.16
2022-11-16T19:49:02.849Z,94466.16
2022-11-16T19:51:33.253Z,94711.06
2022-11-16T19:54:02.897Z,94659.59
2022-11-16T19:56:31.699Z,94552.34
2022-11-16T19:58:59.539Z,94676.00
2022-11-16T20:01:30.477Z,94718.69
2022-11-16T20:04:03.777Z,94594.25
2022-11-16T20:06:39.031Z,94416.91
2022-11-16T20:09:11.245Z,94499.47
2022-11-16T20:11:44.053Z,94336.38
2022-11-16T20:14:15.701Z,94702.28
2022-11-16T20:16:49.327Z,94563.75
2022-11-16T20:19:20.696Z,94671.78
2022-11-16T20:21:49.993Z,94656.19
2022-11-16T20:24:18.919Z,94656.34
2022-11-16T20:26:48.799Z,94682.59
2022-11-16T20:29:19.204Z,94701.91
2022-11-16T20:31:47.117Z,94539.66
2022-11-16T20:34:17.611Z,94312.22
2022-11-16T20:36:48.309Z,94654.81
2022-11-16T20:39:21.853Z,94478.03
2022-11-16T20:41:51.047Z,94652.69
2022-11-16T20:44:19.857Z,94488.97
2022-11-16T20:46:47.729Z,94398.06
2022-11-16T20:49:16.171Z,94428.13
2022-11-16T20:51:46.156Z,94495.13
2022-11-16T20:54:14.481Z,94584.25
2022-11-16T20:56:46.635Z,94635.13
2022-11-16T20:59:14.713Z,94565.09
2022-11-16T21:01:43.654Z,94495.50
2022-11-16T21:04:17.725Z,94621.34
2022-11-16T21:06:46.193Z,94526.66
2022-11-16T21:09:16.605Z,94638.41
2022-11-16T21:11:44.714Z,94492.50
2022-11-16T21:14:12.887Z,94470.72
2022-11-16T21:16:42.336Z,94557.88
2022-11-16T21:19:11.609Z,94423.91
2022-11-16T21:21:41.980Z,94557.44
2022-11-16T21:24:12.354Z,94279.13
2022-11-16T21:26:41.160Z,94609.19
2022-11-16T21:29:11.125Z,94392.16
2022-11-16T21:31:40.846Z,94478.47
2022-11-16T21:34:09.815Z,94406.28
2022-11-16T21:36:36.978Z,94655.28
2022-11-16T21:39:04.215Z,94496.91
2022-11-16T21:41:31.259Z,94419.47
2022-11-16T21:43:58.352Z,94479.34
2022-11-16T21:46:27.064Z,94549.00
2022-11-16T21:48:55.417Z,94642.28
2022-11-16T21:51:23.805Z,94625.06
2022-11-16T21:53:50.957Z,94597.38
2022-11-16T21:56:20.054Z,94623.44
2022-11-16T21:58:47.976Z,94441.06
2022-11-16T22:01:16.438Z,94517.38
2022-11-16T22:03:44.481Z,94607.44
2022-11-16T22:06:17.215Z,94523.00
2022-11-16T22:08:45.533Z,94635.84
2022-11-16T22:11:13.896Z,94469.41
2022-11-16T22:13:42.526Z,94515.94
2022-11-16T22:16:14.789Z,94500.34
2022-11-16T22:18:42.976Z,94423.53
2022-11-16T22:21:10.643Z,94527.13
2022-11-16T22:23:37.914Z,94365.06
2022-11-16T22:26:08.252Z,94551.16
2022-11-16T22:28:36.514Z,94589.16
2022-11-16T22:31:09.656Z,94477.47
2022-11-16T22:33:37.160Z,94560.50
2022-11-16T22:36:05.293Z,94384.38
2022-11-16T22:38:32.131Z,94520.53
2022-11-16T22:40:58.897Z,94282.47
2022-11-16T22:43:28.403Z,94454.00
2022-11-16T22:46:03.718Z,94509.22
2022-11-16T22:48:37.882Z,94484.91
2022-11-16T22:51:33.917Z,94575.97
2022-11-16T22:54:03.057Z,94528.59
2022-11-16T22:56:32.012Z,94569.84
2022-11-16T22:58:59.191Z,94558.44
2022-11-16T23:01:26.291Z,94473.34
2022-11-16T23:03:53.164Z,94423.44
2022-11-16T23:06:20.385Z,94570.13
2022-11-16T23:08:47.970Z,94365.38
2022-11-16T23:11:16.901Z,94560.06
2022-11-16T23:13:44.554Z,94573.06
2022-11-16T23:16:11.425Z,94409.69
2022-11-16T23:18:38.277Z,94466.78
2022-11-16T23:21:05.284Z,94447.97
2022-11-16T23:23:32.606Z,94338.72
2022-11-16T23:25:59.553Z,94483.78
2022-11-16T23:28:26.596Z,94565.50
2022-11-16T23:30:53.535Z,94402.66
2022-11-16T23:33:20.477Z,94359.19
2022-11-16T23:35:47.404Z,94519.84
2022-11-16T23:38:14.296Z,94392.06
2022-11-16T23:40:41.215Z,94497.25
2022-11-16T23:43:10.561Z,94303.41
2022-11-16T23:45:38.921Z,94538.97
2022-11-16T23:48:07.884Z,94492.38
2022-11-16T23:50:35.160Z,94279.00
2022-11-16T23:53:02.682Z,94506.75
2022-11-16T23:55:31.795Z,94384.78
2022-11-16T23:57:58.694Z,94492.44
